sensor_id;sensor_type;location;lat;lon;timestamp;P1;durP1;ratioP1;P2;durP2;ratioP2
11767;SDS011;5941;57.652;12.514;2023-05-07T00:00:51;684.73;;;628.30;;
11767;SDS011;5941;57.652;12.514;2023-05-07T00:03:17;654.50;;;600.83;;
11767;SDS011;5941;57.652;12.514;2023-05-07T00:05:44;715.77;;;655.63;;
11767;SDS011;5941;57.652;12.514;2023-05-07T00:08:10;750.80;;;686.20;;
11767;SDS011;5941;57.652;12.514;2023-05-07T00:10:36;724.40;;;661.70;;
11767;SDS011;5941;57.652;12.514;2023-05-07T00:13:02;726.30;;;662.97;;
11767;SDS011;5941;57.652;12.514;2023-05-07T00:15:28;805.90;;;730.80;;
11767;SDS011;5941;57.652;12.514;2023-05-07T00:17:53;783.70;;;713.57;;
11767;SDS011;5941;57.652;12.514;2023-05-07T00:20:20;828.73;;;752.77;;
11767;SDS011;5941;57.652;12.514;2023-05-07T00:22:45;777.40;;;707.57;;
11767;SDS011;5941;57.652;12.514;2023-05-07T00:25:11;712.20;;;650.20;;
11767;SDS011;5941;57.652;12.514;2023-05-07T00:27:37;783.00;;;711.33;;
11767;SDS011;5941;57.652;12.514;2023-05-07T00:30:04;779.47;;;707.30;;
11767;SDS011;5941;57.652;12.514;2023-05-07T00:32:30;768.40;;;700.33;;
11767;SDS011;5941;57.652;12.514;2023-05-07T00:34:56;745.73;;;678.50;;
11767;SDS011;5941;57.652;12.514;2023-05-07T00:37:22;767.93;;;698.23;;
11767;SDS011;5941;57.652;12.514;2023-05-07T00:39:48;752.30;;;684.53;;
11767;SDS011;5941;57.652;12.514;2023-05-07T00:42:14;739.20;;;674.07;;
11767;SDS011;5941;57.652;12.514;2023-05-07T00:44:41;746.33;;;679.57;;
11767;SDS011;5941;57.652;12.514;2023-05-07T00:47:07;768.47;;;699.80;;
11767;SDS011;5941;57.652;12.514;2023-05-07T00:49:42;750.47;;;682.53;;
11767;SDS011;5941;57.652;12.514;2023-05-07T00:52:14;636.27;;;580.60;;
11767;SDS011;5941;57.652;12.514;2023-05-07T00:54:40;775.10;;;703.20;;
11767;SDS011;5941;57.652;12.514;2023-05-07T00:57:06;721.00;;;655.13;;
11767;SDS011;5941;57.652;12.514;2023-05-07T00:59:34;772.70;;;700.20;;
11767;SDS011;5941;57.652;12.514;2023-05-07T01:02:00;765.83;;;692.50;;
11767;SDS011;5941;57.652;12.514;2023-05-07T01:04:26;623.57;;;568.73;;
11767;SDS011;5941;57.652;12.514;2023-05-07T01:06:52;748.07;;;678.37;;
11767;SDS011;5941;57.652;12.514;2023-05-07T01:09:21;734.80;;;665.80;;
11767;SDS011;5941;57.652;12.514;2023-05-07T01:11:47;697.80;;;633.47;;
11767;SDS011;5941;57.652;12.514;2023-05-07T01:14:15;659.73;;;600.53;;
11767;SDS011;5941;57.652;12.514;2023-05-07T01:16:41;678.47;;;615.93;;
11767;SDS011;5941;57.652;12.514;2023-05-07T01:19:07;685.80;;;623.20;;
11767;SDS011;5941;57.652;12.514;2023-05-07T01:21:35;697.40;;;633.90;;
11767;SDS011;5941;57.652;12.514;2023-05-07T01:24:02;688.33;;;627.00;;
11767;SDS011;5941;57.652;12.514;2023-05-07T01:26:28;684.00;;;621.03;;
11767;SDS011;5941;57.652;12.514;2023-05-07T01:28:54;644.17;;;586.37;;
11767;SDS011;5941;57.652;12.514;2023-05-07T01:31:20;682.77;;;622.40;;
11767;SDS011;5941;57.652;12.514;2023-05-07T01:33:46;610.03;;;558.07;;
11767;SDS011;5941;57.652;12.514;2023-05-07T01:36:14;594.30;;;547.97;;
11767;SDS011;5941;57.652;12.514;2023-05-07T01:38:41;581.90;;;536.93;;
11767;SDS011;5941;57.652;12.514;2023-05-07T01:41:07;568.63;;;525.37;;
11767;SDS011;5941;57.652;12.514;2023-05-07T01:43:33;605.53;;;561.77;;
11767;SDS011;5941;57.652;12.514;2023-05-07T01:45:59;672.53;;;623.97;;
11767;SDS011;5941;57.652;12.514;2023-05-07T01:48:27;646.50;;;597.67;;
11767;SDS011;5941;57.652;12.514;2023-05-07T01:50:53;679.37;;;627.67;;
11767;SDS011;5941;57.652;12.514;2023-05-07T01:53:20;662.57;;;612.00;;
11767;SDS011;5941;57.652;12.514;2023-05-07T01:55:46;731.17;;;673.57;;
11767;SDS011;5941;57.652;12.514;2023-05-07T01:58:12;606.23;;;563.97;;
11767;SDS011;5941;57.652;12.514;2023-05-07T02:00:39;667.80;;;618.87;;
11767;SDS011;5941;57.652;12.514;2023-05-07T02:03:05;662.37;;;614.63;;
11767;SDS011;5941;57.652;12.514;2023-05-07T02:05:31;1999.90;;;999.90;;
11767;SDS011;5941;57.652;12.514;2023-05-07T02:07:57;660.03;;;611.23;;
11767;SDS011;5941;57.652;12.514;2023-05-07T02:10:23;624.40;;;580.57;;
11767;SDS011;5941;57.652;12.514;2023-05-07T02:12:49;693.30;;;641.40;;
11767;SDS011;5941;57.652;12.514;2023-05-07T02:15:15;629.40;;;583.57;;
11767;SDS011;5941;57.652;12.514;2023-05-07T02:20:26;656.57;;;609.30;;
11767;SDS011;5941;57.652;12.514;2023-05-07T02:22:52;683.50;;;633.77;;
11767;SDS011;5941;57.652;12.514;2023-05-07T02:25:18;702.53;;;651.40;;
11767;SDS011;5941;57.652;12.514;2023-05-07T02:27:44;686.40;;;632.93;;
11767;SDS011;5941;57.652;12.514;2023-05-07T02:30:10;1168.23;;;794.83;;
11767;SDS011;5941;57.652;12.514;2023-05-07T02:32:36;1999.90;;;999.90;;
11767;SDS011;5941;57.652;12.514;2023-05-07T02:35:02;1999.90;;;999.90;;
11767;SDS011;5941;57.652;12.514;2023-05-07T02:37:28;1999.90;;;999.90;;
11767;SDS011;5941;57.652;12.514;2023-05-07T02:39:54;1999.90;;;999.90;;
11767;SDS011;5941;57.652;12.514;2023-05-07T02:42:20;1999.90;;;999.90;;
11767;SDS011;5941;57.652;12.514;2023-05-07T02:44:46;1999.90;;;999.90;;
11767;SDS011;5941;57.652;12.514;2023-05-07T02:47:13;1999.90;;;999.90;;
11767;SDS011;5941;57.652;12.514;2023-05-07T02:49:40;1999.90;;;999.90;;
11767;SDS011;5941;57.652;12.514;2023-05-07T02:52:06;1999.90;;;999.90;;
11767;SDS011;5941;57.652;12.514;2023-05-07T02:54:32;1999.90;;;999.90;;
11767;SDS011;5941;57.652;12.514;2023-05-07T02:56:58;1999.90;;;999.90;;
11767;SDS011;5941;57.652;12.514;2023-05-07T02:59:25;1999.90;;;999.90;;
11767;SDS011;5941;57.652;12.514;2023-05-07T03:01:51;1999.90;;;999.90;;
11767;SDS011;5941;57.652;12.514;2023-05-07T03:04:17;1999.90;;;999.90;;
11767;SDS011;5941;57.652;12.514;2023-05-07T03:06:43;1999.90;;;999.90;;
11767;SDS011;5941;57.652;12.514;2023-05-07T03:09:09;1999.90;;;999.90;;
11767;SDS011;5941;57.652;12.514;2023-05-07T03:11:35;1999.90;;;999.90;;
11767;SDS011;5941;57.652;12.514;2023-05-07T03:14:01;1999.90;;;999.90;;
11767;SDS011;5941;57.652;12.514;2023-05-07T03:16:27;1999.90;;;999.90;;
11767;SDS011;5941;57.652;12.514;2023-05-07T03:18:53;1999.90;;;999.90;;
11767;SDS011;5941;57.652;12.514;2023-05-07T03:21:19;1999.90;;;999.90;;
11767;SDS011;5941;57.652;12.514;2023-05-07T03:23:45;1999.90;;;999.90;;
11767;SDS011;5941;57.652;12.514;2023-05-07T03:26:11;1999.90;;;999.90;;
11767;SDS011;5941;57.652;12.514;2023-05-07T03:28:37;1999.90;;;999.90;;
11767;SDS011;5941;57.652;12.514;2023-05-07T03:31:03;1999.90;;;999.90;;
11767;SDS011;5941;57.652;12.514;2023-05-07T03:33:29;1999.90;;;999.90;;
11767;SDS011;5941;57.652;12.514;2023-05-07T03:35:55;1999.90;;;999.90;;
11767;SDS011;5941;57.652;12.514;2023-05-07T03:38:21;1999.90;;;999.90;;
11767;SDS011;5941;57.652;12.514;2023-05-07T03:40:47;1999.90;;;999.90;;
11767;SDS011;5941;57.652;12.514;2023-05-07T03:43:13;1999.90;;;999.90;;
11767;SDS011;5941;57.652;12.514;2023-05-07T03:45:39;1999.90;;;999.90;;
11767;SDS011;5941;57.652;12.514;2023-05-07T03:48:05;1999.90;;;999.90;;
11767;SDS011;5941;57.652;12.514;2023-05-07T03:50:31;1999.90;;;999.90;;
11767;SDS011;5941;57.652;12.514;2023-05-07T03:52:57;1999.90;;;999.90;;
11767;SDS011;5941;57.652;12.514;2023-05-07T03:55:23;1999.90;;;999.90;;
11767;SDS011;5941;57.652;12.514;2023-05-07T03:57:49;1999.90;;;999.90;;
11767;SDS011;5941;57.652;12.514;2023-05-07T04:00:15;1999.90;;;999.90;;
11767;SDS011;5941;57.652;12.514;2023-05-07T04:02:41;1999.90;;;999.90;;
11767;SDS011;5941;57.652;12.514;2023-05-07T04:05:07;1999.90;;;999.90;;
11767;SDS011;5941;57.652;12.514;2023-05-07T04:07:34;1999.90;;;999.90;;
11767;SDS011;5941;57.652;12.514;2023-05-07T04:10:00;1999.90;;;999.90;;
11767;SDS011;5941;57.652;12.514;2023-05-07T04:12:26;1999.90;;;999.90;;
11767;SDS011;5941;57.652;12.514;2023-05-07T04:14:52;1999.90;;;999.90;;
11767;SDS011;5941;57.652;12.514;2023-05-07T04:17:18;1999.90;;;999.90;;
11767;SDS011;5941;57.652;12.514;2023-05-07T04:19:44;1999.90;;;999.90;;
11767;SDS011;5941;57.652;12.514;2023-05-07T04:22:10;1999.90;;;999.90;;
11767;SDS011;5941;57.652;12.514;2023-05-07T04:24:37;1999.90;;;999.90;;
11767;SDS011;5941;57.652;12.514;2023-05-07T04:27:02;1999.90;;;999.90;;
11767;SDS011;5941;57.652;12.514;2023-05-07T04:29:29;1999.90;;;999.90;;
11767;SDS011;5941;57.652;12.514;2023-05-07T04:31:55;1999.90;;;999.90;;
11767;SDS011;5941;57.652;12.514;2023-05-07T04:34:21;1999.90;;;999.90;;
11767;SDS011;5941;57.652;12.514;2023-05-07T04:36:47;1999.90;;;999.90;;
11767;SDS011;5941;57.652;12.514;2023-05-07T04:39:13;1999.90;;;999.90;;
11767;SDS011;5941;57.652;12.514;2023-05-07T04:41:39;1999.90;;;999.90;;
11767;SDS011;5941;57.652;12.514;2023-05-07T04:44:05;1999.90;;;999.90;;
11767;SDS011;5941;57.652;12.514;2023-05-07T04:46:31;1999.90;;;999.90;;
11767;SDS011;5941;57.652;12.514;2023-05-07T04:48:57;1999.90;;;999.90;;
11767;SDS011;5941;57.652;12.514;2023-05-07T04:51:23;1999.90;;;999.90;;
11767;SDS011;5941;57.652;12.514;2023-05-07T04:53:50;1999.90;;;999.90;;
11767;SDS011;5941;57.652;12.514;2023-05-07T04:56:16;1999.90;;;999.90;;
11767;SDS011;5941;57.652;12.514;2023-05-07T04:58:42;1999.90;;;999.90;;
11767;SDS011;5941;57.652;12.514;2023-05-07T05:01:08;1999.90;;;999.90;;
11767;SDS011;5941;57.652;12.514;2023-05-07T05:03:34;1999.90;;;999.90;;
11767;SDS011;5941;57.652;12.514;2023-05-07T05:06:00;1999.90;;;999.90;;
11767;SDS011;5941;57.652;12.514;2023-05-07T05:08:25;1999.90;;;999.90;;
11767;SDS011;5941;57.652;12.514;2023-05-07T05:10:51;1999.90;;;999.90;;
11767;SDS011;5941;57.652;12.514;2023-05-07T05:13:17;1999.90;;;999.90;;
11767;SDS011;5941;57.652;12.514;2023-05-07T05:15:43;1999.90;;;999.90;;
11767;SDS011;5941;57.652;12.514;2023-05-07T05:18:10;1999.90;;;999.90;;
11767;SDS011;5941;57.652;12.514;2023-05-07T05:20:36;1999.90;;;999.90;;
11767;SDS011;5941;57.652;12.514;2023-05-07T05:23:02;1999.90;;;999.90;;
11767;SDS011;5941;57.652;12.514;2023-05-07T05:25:28;1999.90;;;999.90;;
11767;SDS011;5941;57.652;12.514;2023-05-07T05:27:54;1999.90;;;999.90;;
11767;SDS011;5941;57.652;12.514;2023-05-07T05:30:20;1999.90;;;999.90;;
11767;SDS011;5941;57.652;12.514;2023-05-07T05:32:46;1999.90;;;999.90;;
11767;SDS011;5941;57.652;12.514;2023-05-07T05:35:12;1999.90;;;999.90;;
11767;SDS011;5941;57.652;12.514;2023-05-07T05:37:38;650.20;;;602.73;;
11767;SDS011;5941;57.652;12.514;2023-05-07T05:40:04;1999.90;;;999.90;;
11767;SDS011;5941;57.652;12.514;2023-05-07T05:42:30;1999.90;;;999.90;;
11767;SDS011;5941;57.652;12.514;2023-05-07T05:44:56;591.50;;;545.97;;
11767;SDS011;5941;57.652;12.514;2023-05-07T05:47:22;729.53;;;665.40;;
11767;SDS011;5941;57.652;12.514;2023-05-07T05:49:48;639.03;;;588.90;;
11767;SDS011;5941;57.652;12.514;2023-05-07T05:52:14;719.80;;;656.53;;
11767;SDS011;5941;57.652;12.514;2023-05-07T05:54:41;544.27;;;501.53;;
11767;SDS011;5941;57.652;12.514;2023-05-07T05:57:07;661.73;;;605.17;;
11767;SDS011;5941;57.652;12.514;2023-05-07T05:59:33;621.40;;;569.17;;
11767;SDS011;5941;57.652;12.514;2023-05-07T06:01:59;709.37;;;643.97;;
11767;SDS011;5941;57.652;12.514;2023-05-07T06:04:25;678.97;;;616.37;;
11767;SDS011;5941;57.652;12.514;2023-05-07T06:06:51;560.17;;;510.70;;
11767;SDS011;5941;57.652;12.514;2023-05-07T06:09:17;736.93;;;665.97;;
11767;SDS011;5941;57.652;12.514;2023-05-07T06:11:43;584.17;;;534.83;;
11767;SDS011;5941;57.652;12.514;2023-05-07T06:14:09;751.97;;;682.63;;
11767;SDS011;5941;57.652;12.514;2023-05-07T06:16:35;788.50;;;714.60;;
11767;SDS011;5941;57.652;12.514;2023-05-07T06:19:02;774.67;;;702.67;;
11767;SDS011;5941;57.652;12.514;2023-05-07T06:21:28;780.37;;;709.57;;
11767;SDS011;5941;57.652;12.514;2023-05-07T06:23:55;786.73;;;713.30;;
11767;SDS011;5941;57.652;12.514;2023-05-07T06:26:21;851.87;;;773.83;;
11767;SDS011;5941;57.652;12.514;2023-05-07T06:28:47;712.93;;;653.57;;
11767;SDS011;5941;57.652;12.514;2023-05-07T06:31:14;659.37;;;604.60;;
11767;SDS011;5941;57.652;12.514;2023-05-07T06:33:40;770.93;;;705.50;;
11767;SDS011;5941;57.652;12.514;2023-05-07T06:36:06;1544.30;;;860.07;;
11767;SDS011;5941;57.652;12.514;2023-05-07T06:38:32;1999.90;;;999.90;;
11767;SDS011;5941;57.652;12.514;2023-05-07T06:40:58;1999.90;;;999.90;;
11767;SDS011;5941;57.652;12.514;2023-05-07T06:43:24;1999.90;;;999.90;;
11767;SDS011;5941;57.652;12.514;2023-05-07T06:45:50;1999.90;;;999.90;;
11767;SDS011;5941;57.652;12.514;2023-05-07T06:48:16;1999.90;;;999.90;;
11767;SDS011;5941;57.652;12.514;2023-05-07T06:50:42;1999.90;;;999.90;;
11767;SDS011;5941;57.652;12.514;2023-05-07T06:53:08;1999.90;;;999.90;;
11767;SDS011;5941;57.652;12.514;2023-05-07T06:55:34;1999.90;;;999.90;;
11767;SDS011;5941;57.652;12.514;2023-05-07T06:58:00;1999.90;;;999.90;;
11767;SDS011;5941;57.652;12.514;2023-05-07T07:00:28;1999.90;;;999.90;;
11767;SDS011;5941;57.652;12.514;2023-05-07T07:02:54;1999.90;;;999.90;;
11767;SDS011;5941;57.652;12.514;2023-05-07T07:05:20;1999.90;;;999.90;;
11767;SDS011;5941;57.652;12.514;2023-05-07T07:07:46;1999.90;;;999.90;;
11767;SDS011;5941;57.652;12.514;2023-05-07T07:10:20;1999.90;;;999.90;;
11767;SDS011;5941;57.652;12.514;2023-05-07T07:12:46;1999.90;;;999.90;;
11767;SDS011;5941;57.652;12.514;2023-05-07T07:15:13;1999.90;;;999.90;;
11767;SDS011;5941;57.652;12.514;2023-05-07T07:17:39;1999.90;;;999.90;;
11767;SDS011;5941;57.652;12.514;2023-05-07T07:20:05;1999.90;;;999.90;;
11767;SDS011;5941;57.652;12.514;2023-05-07T07:22:31;1999.90;;;999.90;;
11767;SDS011;5941;57.652;12.514;2023-05-07T07:24:57;1999.90;;;999.90;;
11767;SDS011;5941;57.652;12.514;2023-05-07T07:27:23;1999.90;;;999.90;;
11767;SDS011;5941;57.652;12.514;2023-05-07T07:29:49;1999.90;;;999.90;;
11767;SDS011;5941;57.652;12.514;2023-05-07T07:32:15;1999.90;;;999.90;;
11767;SDS011;5941;57.652;12.514;2023-05-07T07:34:41;1999.90;;;999.90;;
11767;SDS011;5941;57.652;12.514;2023-05-07T07:37:07;1999.90;;;999.90;;
11767;SDS011;5941;57.652;12.514;2023-05-07T07:39:33;1999.90;;;999.90;;
11767;SDS011;5941;57.652;12.514;2023-05-07T07:41:59;1999.90;;;999.90;;
11767;SDS011;5941;57.652;12.514;2023-05-07T07:44:25;1999.90;;;999.90;;
11767;SDS011;5941;57.652;12.514;2023-05-07T07:46:51;1487.83;;;811.27;;
11767;SDS011;5941;57.652;12.514;2023-05-07T07:49:17;1999.90;;;999.90;;
11767;SDS011;5941;57.652;12.514;2023-05-07T07:51:42;1999.90;;;999.90;;
11767;SDS011;5941;57.652;12.514;2023-05-07T07:54:08;1999.90;;;999.90;;
11767;SDS011;5941;57.652;12.514;2023-05-07T07:56:34;413.93;;;386.87;;
11767;SDS011;5941;57.652;12.514;2023-05-07T07:59:01;1999.90;;;999.90;;
11767;SDS011;5941;57.652;12.514;2023-05-07T08:01:29;906.23;;;559.40;;
11767;SDS011;5941;57.652;12.514;2023-05-07T08:03:55;355.90;;;336.20;;
11767;SDS011;5941;57.652;12.514;2023-05-07T08:06:22;455.47;;;425.60;;
11767;SDS011;5941;57.652;12.514;2023-05-07T08:08:48;379.87;;;357.87;;
11767;SDS011;5941;57.652;12.514;2023-05-07T08:11:14;323.43;;;306.73;;
11767;SDS011;5941;57.652;12.514;2023-05-07T08:13:40;346.33;;;326.07;;
11767;SDS011;5941;57.652;12.514;2023-05-07T08:16:06;322.10;;;304.40;;
11767;SDS011;5941;57.652;12.514;2023-05-07T08:18:32;348.47;;;328.83;;
11767;SDS011;5941;57.652;12.514;2023-05-07T08:20:58;331.63;;;313.00;;
11767;SDS011;5941;57.652;12.514;2023-05-07T08:23:24;343.13;;;323.20;;
11767;SDS011;5941;57.652;12.514;2023-05-07T08:25:50;286.60;;;271.40;;
11767;SDS011;5941;57.652;12.514;2023-05-07T08:28:17;577.80;;;531.63;;
11767;SDS011;5941;57.652;12.514;2023-05-07T08:30:44;378.00;;;357.27;;
11767;SDS011;5941;57.652;12.514;2023-05-07T08:33:10;340.20;;;320.50;;
11767;SDS011;5941;57.652;12.514;2023-05-07T08:35:36;359.30;;;338.40;;
11767;SDS011;5941;57.652;12.514;2023-05-07T08:38:02;410.57;;;384.03;;
11767;SDS011;5941;57.652;12.514;2023-05-07T08:40:28;483.27;;;449.07;;
11767;SDS011;5941;57.652;12.514;2023-05-07T08:42:54;433.33;;;406.60;;
11767;SDS011;5941;57.652;12.514;2023-05-07T08:45:20;275.20;;;261.07;;
11767;SDS011;5941;57.652;12.514;2023-05-07T08:47:47;405.67;;;381.87;;
11767;SDS011;5941;57.652;12.514;2023-05-07T08:50:15;897.93;;;821.57;;
11767;SDS011;5941;57.652;12.514;2023-05-07T08:52:41;379.40;;;356.87;;
11767;SDS011;5941;57.652;12.514;2023-05-07T08:55:07;345.10;;;326.87;;
11767;SDS011;5941;57.652;12.514;2023-05-07T08:57:34;967.63;;;873.77;;
11767;SDS011;5941;57.652;12.514;2023-05-07T09:00:00;311.73;;;295.27;;
11767;SDS011;5941;57.652;12.514;2023-05-07T09:02:26;275.60;;;261.77;;
11767;SDS011;5941;57.652;12.514;2023-05-07T09:04:52;414.50;;;387.53;;
11767;SDS011;5941;57.652;12.514;2023-05-07T09:07:19;726.23;;;665.33;;
11767;SDS011;5941;57.652;12.514;2023-05-07T09:09:45;682.27;;;627.77;;
11767;SDS011;5941;57.652;12.514;2023-05-07T09:12:11;456.50;;;425.20;;
11767;SDS011;5941;57.652;12.514;2023-05-07T09:14:38;378.00;;;355.07;;
11767;SDS011;5941;57.652;12.514;2023-05-07T09:17:04;389.77;;;366.90;;
11767;SDS011;5941;57.652;12.514;2023-05-07T09:19:30;840.83;;;766.83;;
11767;SDS011;5941;57.652;12.514;2023-05-07T09:22:00;806.60;;;740.87;;
11767;SDS011;5941;57.652;12.514;2023-05-07T09:24:26;368.93;;;348.60;;
11767;SDS011;5941;57.652;12.514;2023-05-07T09:26:54;286.03;;;272.30;;
11767;SDS011;5941;57.652;12.514;2023-05-07T09:29:20;461.30;;;432.77;;
11767;SDS011;5941;57.652;12.514;2023-05-07T09:31:46;561.70;;;523.97;;
11767;SDS011;5941;57.652;12.514;2023-05-07T09:34:12;709.93;;;654.43;;
11767;SDS011;5941;57.652;12.514;2023-05-07T09:36:38;663.73;;;611.00;;
11767;SDS011;5941;57.652;12.514;2023-05-07T09:39:04;532.03;;;496.57;;
11767;SDS011;5941;57.652;12.514;2023-05-07T09:41:30;428.77;;;403.60;;
11767;SDS011;5941;57.652;12.514;2023-05-07T09:43:57;558.40;;;518.07;;
11767;SDS011;5941;57.652;12.514;2023-05-07T09:46:30;876.53;;;802.83;;
11767;SDS011;5941;57.652;12.514;2023-05-07T09:48:59;687.83;;;638.23;;
11767;SDS011;5941;57.652;12.514;2023-05-07T09:51:30;701.93;;;648.20;;
11767;SDS011;5941;57.652;12.514;2023-05-07T09:53:59;346.03;;;328.27;;
11767;SDS011;5941;57.652;12.514;2023-05-07T09:56:27;842.30;;;772.40;;
11767;SDS011;5941;57.652;12.514;2023-05-07T09:58:55;822.20;;;756.53;;
11767;SDS011;5941;57.652;12.514;2023-05-07T10:01:22;762.03;;;704.97;;
11767;SDS011;5941;57.652;12.514;2023-05-07T10:03:48;829.17;;;762.13;;
11767;SDS011;5941;57.652;12.514;2023-05-07T10:06:15;675.53;;;623.03;;
11767;SDS011;5941;57.652;12.514;2023-05-07T10:08:42;290.33;;;275.73;;
11767;SDS011;5941;57.652;12.514;2023-05-07T10:11:08;400.10;;;374.20;;
11767;SDS011;5941;57.652;12.514;2023-05-07T10:13:34;500.70;;;458.00;;
11767;SDS011;5941;57.652;12.514;2023-05-07T10:16:05;444.27;;;414.70;;
11767;SDS011;5941;57.652;12.514;2023-05-07T10:18:31;664.03;;;615.43;;
11767;SDS011;5941;57.652;12.514;2023-05-07T10:21:07;679.67;;;627.00;;
11767;SDS011;5941;57.652;12.514;2023-05-07T10:23:34;723.87;;;666.20;;
11767;SDS011;5941;57.652;12.514;2023-05-07T10:26:04;791.90;;;727.83;;
11767;SDS011;5941;57.652;12.514;2023-05-07T10:28:32;1047.63;;;953.10;;
11767;SDS011;5941;57.652;12.514;2023-05-07T10:33:44;892.50;;;818.90;;
11767;SDS011;5941;57.652;12.514;2023-05-07T10:36:12;486.50;;;451.60;;
11767;SDS011;5941;57.652;12.514;2023-05-07T10:38:38;912.73;;;835.07;;
11767;SDS011;5941;57.652;12.514;2023-05-07T10:41:05;596.90;;;552.37;;
11767;SDS011;5941;57.652;12.514;2023-05-07T10:43:41;929.43;;;853.83;;
11767;SDS011;5941;57.652;12.514;2023-05-07T10:46:11;847.23;;;778.00;;
11767;SDS011;5941;57.652;12.514;2023-05-07T10:51:22;708.53;;;651.03;;
11767;SDS011;5941;57.652;12.514;2023-05-07T10:53:48;782.27;;;718.97;;
11767;SDS011;5941;57.652;12.514;2023-05-07T10:58:46;710.27;;;657.23;;
11767;SDS011;5941;57.652;12.514;2023-05-07T11:01:12;993.53;;;906.37;;
11767;SDS011;5941;57.652;12.514;2023-05-07T11:06:24;607.33;;;561.00;;
11767;SDS011;5941;57.652;12.514;2023-05-07T11:08:56;868.27;;;792.73;;
11767;SDS011;5941;57.652;12.514;2023-05-07T11:14:07;847.90;;;778.10;;
11767;SDS011;5941;57.652;12.514;2023-05-07T11:16:33;704.53;;;651.60;;
11767;SDS011;5941;57.652;12.514;2023-05-07T11:19:01;904.40;;;827.67;;
11767;SDS011;5941;57.652;12.514;2023-05-07T11:24:03;660.37;;;607.47;;
11767;SDS011;5941;57.652;12.514;2023-05-07T11:26:30;646.63;;;596.03;;
11767;SDS011;5941;57.652;12.514;2023-05-07T11:28:56;955.93;;;873.00;;
11767;SDS011;5941;57.652;12.514;2023-05-07T11:31:25;895.47;;;818.70;;
11767;SDS011;5941;57.652;12.514;2023-05-07T11:33:53;317.87;;;301.23;;
11767;SDS011;5941;57.652;12.514;2023-05-07T11:36:21;796.33;;;732.27;;
11767;SDS011;5941;57.652;12.514;2023-05-07T11:38:47;315.00;;;297.20;;
11767;SDS011;5941;57.652;12.514;2023-05-07T11:41:13;298.53;;;281.57;;
11767;SDS011;5941;57.652;12.514;2023-05-07T11:43:52;292.00;;;276.20;;
11767;SDS011;5941;57.652;12.514;2023-05-07T11:46:19;760.97;;;699.87;;
11767;SDS011;5941;57.652;12.514;2023-05-07T11:48:45;863.00;;;789.93;;
11767;SDS011;5941;57.652;12.514;2023-05-07T11:51:11;871.23;;;791.93;;
11767;SDS011;5941;57.652;12.514;2023-05-07T11:53:38;633.17;;;584.27;;
11767;SDS011;5941;57.652;12.514;2023-05-07T11:56:08;775.93;;;709.30;;
11767;SDS011;5941;57.652;12.514;2023-05-07T11:58:34;519.80;;;482.43;;
11767;SDS011;5941;57.652;12.514;2023-05-07T12:01:01;902.40;;;822.97;;
11767;SDS011;5941;57.652;12.514;2023-05-07T12:03:27;699.03;;;639.80;;
11767;SDS011;5941;57.652;12.514;2023-05-07T12:05:53;682.83;;;627.60;;
11767;SDS011;5941;57.652;12.514;2023-05-07T12:08:19;651.37;;;597.90;;
11767;SDS011;5941;57.652;12.514;2023-05-07T12:10:46;811.83;;;741.17;;
11767;SDS011;5941;57.652;12.514;2023-05-07T12:13:19;672.37;;;616.00;;
11767;SDS011;5941;57.652;12.514;2023-05-07T12:15:45;733.60;;;672.03;;
11767;SDS011;5941;57.652;12.514;2023-05-07T12:18:11;846.63;;;774.00;;
11767;SDS011;5941;57.652;12.514;2023-05-07T12:20:38;796.17;;;729.23;;
11767;SDS011;5941;57.652;12.514;2023-05-07T12:23:04;827.93;;;757.17;;
11767;SDS011;5941;57.652;12.514;2023-05-07T12:25:37;845.17;;;773.40;;
11767;SDS011;5941;57.652;12.514;2023-05-07T12:28:04;265.23;;;251.63;;
11767;SDS011;5941;57.652;12.514;2023-05-07T12:30:36;798.50;;;730.67;;
11767;SDS011;5941;57.652;12.514;2023-05-07T12:33:03;899.53;;;821.37;;
11767;SDS011;5941;57.652;12.514;2023-05-07T12:37:58;892.10;;;801.17;;
11767;SDS011;5941;57.652;12.514;2023-05-07T12:40:39;368.20;;;342.57;;
11767;SDS011;5941;57.652;12.514;2023-05-07T12:43:05;438.87;;;407.60;;
11767;SDS011;5941;57.652;12.514;2023-05-07T12:45:31;884.83;;;808.00;;
11767;SDS011;5941;57.652;12.514;2023-05-07T12:48:00;851.03;;;777.50;;
11767;SDS011;5941;57.652;12.514;2023-05-07T12:50:30;685.30;;;631.20;;
11767;SDS011;5941;57.652;12.514;2023-05-07T12:52:56;876.63;;;803.43;;
11767;SDS011;5941;57.652;12.514;2023-05-07T12:55:23;809.13;;;740.90;;
11767;SDS011;5941;57.652;12.514;2023-05-07T12:57:49;796.50;;;731.50;;
11767;SDS011;5941;57.652;12.514;2023-05-07T13:00:16;368.53;;;343.23;;
11767;SDS011;5941;57.652;12.514;2023-05-07T13:02:43;827.97;;;757.73;;
11767;SDS011;5941;57.652;12.514;2023-05-07T13:05:12;484.57;;;442.87;;
11767;SDS011;5941;57.652;12.514;2023-05-07T13:07:38;520.13;;;481.37;;
11767;SDS011;5941;57.652;12.514;2023-05-07T13:10:05;862.70;;;789.53;;
11767;SDS011;5941;57.652;12.514;2023-05-07T13:12:32;340.03;;;319.67;;
11767;SDS011;5941;57.652;12.514;2023-05-07T13:14:58;900.87;;;825.07;;
11767;SDS011;5941;57.652;12.514;2023-05-07T13:17:24;943.70;;;861.63;;
11767;SDS011;5941;57.652;12.514;2023-05-07T13:19:50;932.83;;;853.57;;
11767;SDS011;5941;57.652;12.514;2023-05-07T13:22:16;906.57;;;828.43;;
11767;SDS011;5941;57.652;12.514;2023-05-07T13:24:41;1030.03;;;937.17;;
11767;SDS011;5941;57.652;12.514;2023-05-07T13:27:08;824.23;;;754.57;;
11767;SDS011;5941;57.652;12.514;2023-05-07T13:29:34;829.60;;;758.90;;
11767;SDS011;5941;57.652;12.514;2023-05-07T13:32:00;346.10;;;324.63;;
11767;SDS011;5941;57.652;12.514;2023-05-07T13:34:26;880.50;;;793.33;;
11767;SDS011;5941;57.652;12.514;2023-05-07T13:36:52;393.10;;;367.37;;
11767;SDS011;5941;57.652;12.514;2023-05-07T13:39:18;624.53;;;577.63;;
11767;SDS011;5941;57.652;12.514;2023-05-07T13:41:44;925.77;;;847.17;;
11767;SDS011;5941;57.652;12.514;2023-05-07T13:44:10;681.23;;;628.63;;
11767;SDS011;5941;57.652;12.514;2023-05-07T13:46:36;911.73;;;835.97;;
11767;SDS011;5941;57.652;12.514;2023-05-07T13:49:02;925.93;;;847.03;;
11767;SDS011;5941;57.652;12.514;2023-05-07T13:51:28;860.20;;;789.13;;
11767;SDS011;5941;57.652;12.514;2023-05-07T13:53:54;728.10;;;669.53;;
11767;SDS011;5941;57.652;12.514;2023-05-07T13:56:20;1046.83;;;954.60;;
11767;SDS011;5941;57.652;12.514;2023-05-07T13:58:46;928.00;;;844.93;;
11767;SDS011;5941;57.652;12.514;2023-05-07T14:01:12;803.93;;;734.87;;
11767;SDS011;5941;57.652;12.514;2023-05-07T14:03:38;858.27;;;786.67;;
11767;SDS011;5941;57.652;12.514;2023-05-07T14:06:04;499.90;;;463.40;;
11767;SDS011;5941;57.652;12.514;2023-05-07T14:08:30;809.57;;;741.30;;
11767;SDS011;5941;57.652;12.514;2023-05-07T14:10:56;960.40;;;877.43;;